sensor_id;sensor_type;location;lat;lon;timestamp;pressure;altitude;pressure_sealevel;temperature;humidity
81379;BME280;70830;42.290;-71.354;2024-03-29T00:02:09;100425.72;;;9.48;82.84
81379;BME280;70830;42.290;-71.354;2024-03-29T00:04:35;100399.09;;;9.13;82.22
81379;BME280;70830;42.290;-71.354;2024-03-29T00:07:01;100437.09;;;9.27;82.44
81379;BME280;70830;42.290;-71.354;2024-03-29T00:09:30;100441.00;;;9.17;81.88
81379;BME280;70830;42.290;-71.354;2024-03-29T00:11:55;100463.63;;;9.21;81.24
81379;BME280;70830;42.290;-71.354;2024-03-29T00:14:21;100474.69;;;9.08;81.74
81379;BME280;70830;42.290;-71.354;2024-03-29T00:16:47;100483.47;;;9.07;81.84
81379;BME280;70830;42.290;-71.354;2024-03-29T00:19:13;100477.56;;;9.02;82.35
81379;BME280;70830;42.290;-71.354;2024-03-29T00:21:39;100465.91;;;8.85;82.09
81379;BME280;70830;42.290;-71.354;2024-03-29T00:24:05;100484.94;;;8.92;82.29
81379;BME280;70830;42.290;-71.354;2024-03-29T00:26:30;100492.97;;;8.88;81.94
81379;BME280;70830;42.290;-71.354;2024-03-29T00:28:56;100477.56;;;8.78;81.63
81379;BME280;70830;42.290;-71.354;2024-03-29T00:31:22;100498.25;;;8.88;81.77
81379;BME280;70830;42.290;-71.354;2024-03-29T00:33:48;100502.69;;;8.85;82.04
81379;BME280;70830;42.290;-71.354;2024-03-29T00:36:14;100487.19;;;8.78;82.12
81379;BME280;70830;42.290;-71.354;2024-03-29T00:38:40;100483.03;;;8.72;82.55
81379;BME280;70830;42.290;-71.354;2024-03-29T00:41:06;100491.38;;;8.83;81.87
81379;BME280;70830;42.290;-71.354;2024-03-29T00:43:32;100488.84;;;8.80;81.54
81379;BME280;70830;42.290;-71.354;2024-03-29T00:45:58;100472.28;;;8.78;81.89
81379;BME280;70830;42.290;-71.354;2024-03-29T00:48:24;100433.63;;;8.59;82.02
81379;BME280;70830;42.290;-71.354;2024-03-29T00:50:50;100447.22;;;8.70;81.84
81379;BME280;70830;42.290;-71.354;2024-03-29T00:53:16;100449.78;;;8.71;81.71
81379;BME280;70830;42.290;-71.354;2024-03-29T00:55:42;100430.72;;;8.66;82.13
81379;BME280;70830;42.290;-71.354;2024-03-29T00:58:07;100436.06;;;8.63;82.65
81379;BME280;70830;42.290;-71.354;2024-03-29T01:00:33;100418.81;;;8.56;82.07
81379;BME280;70830;42.290;-71.354;2024-03-29T01:02:59;100429.84;;;8.66;82.73
81379;BME280;70830;42.290;-71.354;2024-03-29T01:05:25;100409.78;;;8.63;82.09
81379;BME280;70830;42.290;-71.354;2024-03-29T01:07:51;100421.50;;;8.55;82.51
81379;BME280;70830;42.290;-71.354;2024-03-29T01:10:17;100431.72;;;8.62;82.01
81379;BME280;70830;42.290;-71.354;2024-03-29T01:12:43;100426.53;;;8.61;82.39
81379;BME280;70830;42.290;-71.354;2024-03-29T01:15:09;100423.09;;;8.59;82.26
81379;BME280;70830;42.290;-71.354;2024-03-29T01:17:34;100411.16;;;8.50;82.01
81379;BME280;70830;42.290;-71.354;2024-03-29T01:20:00;100410.22;;;8.51;82.07
81379;BME280;70830;42.290;-71.354;2024-03-29T01:22:26;100405.84;;;8.52;82.44
81379;BME280;70830;42.290;-71.354;2024-03-29T01:24:52;100392.19;;;8.42;81.74
81379;BME280;70830;42.290;-71.354;2024-03-29T01:27:18;100393.84;;;8.45;82.02
81379;BME280;70830;42.290;-71.354;2024-03-29T01:29:44;100392.88;;;8.47;82.32
81379;BME280;70830;42.290;-71.354;2024-03-29T01:32:10;100376.72;;;8.35;81.74
81379;BME280;70830;42.290;-71.354;2024-03-29T01:34:36;100382.66;;;8.40;82.37
81379;BME280;70830;42.290;-71.354;2024-03-29T01:37:02;100378.25;;;8.40;82.63
81379;BME280;70830;42.290;-71.354;2024-03-29T01:39:28;100369.72;;;8.35;81.75
81379;BME280;70830;42.290;-71.354;2024-03-29T01:41:56;100374.00;;;8.38;81.75
81379;BME280;70830;42.290;-71.354;2024-03-29T01:44:23;100364.38;;;8.37;81.80
81379;BME280;70830;42.290;-71.354;2024-03-29T01:46:49;100357.75;;;8.27;81.60
81379;BME280;70830;42.290;-71.354;2024-03-29T01:49:15;100371.56;;;8.32;81.79
81379;BME280;70830;42.290;-71.354;2024-03-29T01:51:42;100377.91;;;8.26;82.36
81379;BME280;70830;42.290;-71.354;2024-03-29T01:54:10;100400.63;;;8.27;81.67
81379;BME280;70830;42.290;-71.354;2024-03-29T01:56:37;100392.16;;;8.19;81.28
81379;BME280;70830;42.290;-71.354;2024-03-29T01:59:08;100414.75;;;8.23;81.07
81379;BME280;70830;42.290;-71.354;2024-03-29T02:01:38;100408.06;;;8.14;81.68
81379;BME280;70830;42.290;-71.354;2024-03-29T02:04:05;100414.19;;;8.15;81.70
81379;BME280;70830;42.290;-71.354;2024-03-29T02:06:32;100407.25;;;8.12;81.97
81379;BME280;70830;42.290;-71.354;2024-03-29T02:08:58;100397.94;;;8.04;82.16
81379;BME280;70830;42.290;-71.354;2024-03-29T02:11:24;100414.22;;;8.13;82.47
81379;BME280;70830;42.290;-71.354;2024-03-29T02:13:50;100402.75;;;8.16;81.56
81379;BME280;70830;42.290;-71.354;2024-03-29T02:16:16;100394.78;;;8.19;82.08
81379;BME280;70830;42.290;-71.354;2024-03-29T02:18:42;100394.06;;;8.14;81.73
81379;BME280;70830;42.290;-71.354;2024-03-29T02:21:08;100410.53;;;8.19;82.36
81379;BME280;70830;42.290;-71.354;2024-03-29T02:23:37;100414.84;;;8.20;81.98
81379;BME280;70830;42.290;-71.354;2024-03-29T02:26:04;100387.13;;;8.13;81.87
81379;BME280;70830;42.290;-71.354;2024-03-29T02:28:30;100395.66;;;8.18;81.31
81379;BME280;70830;42.290;-71.354;2024-03-29T02:30:56;100373.94;;;8.14;81.63
81379;BME280;70830;42.290;-71.354;2024-03-29T02:33:22;100368.69;;;8.14;81.28
81379;BME280;70830;42.290;-71.354;2024-03-29T02:35:48;100366.13;;;8.13;81.99
81379;BME280;70830;42.290;-71.354;2024-03-29T02:38:14;100351.19;;;8.13;81.96
81379;BME280;70830;42.290;-71.354;2024-03-29T02:40:40;100308.56;;;8.07;82.43
81379;BME280;70830;42.290;-71.354;2024-03-29T02:43:06;100289.28;;;8.08;82.11
81379;BME280;70830;42.290;-71.354;2024-03-29T02:45:32;100290.13;;;8.08;81.94
81379;BME280;70830;42.290;-71.354;2024-03-29T02:47:58;100312.56;;;8.17;82.02
81379;BME280;70830;42.290;-71.354;2024-03-29T02:50:24;100327.34;;;8.20;81.71
81379;BME280;70830;42.290;-71.354;2024-03-29T02:52:50;100304.78;;;8.14;81.71
81379;BME280;70830;42.290;-71.354;2024-03-29T02:55:15;100306.63;;;8.12;82.38
81379;BME280;70830;42.290;-71.354;2024-03-29T02:57:41;100310.97;;;8.13;81.95
81379;BME280;70830;42.290;-71.354;2024-03-29T03:00:08;100306.63;;;8.12;81.71
81379;BME280;70830;42.290;-71.354;2024-03-29T03:02:40;100316.41;;;8.08;81.71
81379;BME280;70830;42.290;-71.354;2024-03-29T03:05:07;100300.13;;;7.99;81.70
81379;BME280;70830;42.290;-71.354;2024-03-29T03:07:34;100303.59;;;7.99;81.90
81379;BME280;70830;42.290;-71.354;2024-03-29T03:10:19;100300.91;;;8.01;81.68
81379;BME280;70830;42.290;-71.354;2024-03-29T03:13:04;100274.38;;;7.85;82.53
81379;BME280;70830;42.290;-71.354;2024-03-29T03:15:30;100276.13;;;7.85;82.03
81379;BME280;70830;42.290;-71.354;2024-03-29T03:17:56;100278.59;;;7.89;81.93
81379;BME280;70830;42.290;-71.354;2024-03-29T03:20:22;100282.97;;;7.89;82.46
81379;BME280;70830;42.290;-71.354;2024-03-29T03:22:51;100285.19;;;7.76;82.19
81379;BME280;70830;42.290;-71.354;2024-03-29T03:25:17;100287.56;;;7.84;82.53
81379;BME280;70830;42.290;-71.354;2024-03-29T03:27:42;100287.66;;;7.81;82.05
81379;BME280;70830;42.290;-71.354;2024-03-29T03:30:09;100289.56;;;7.77;82.22
81379;BME280;70830;42.290;-71.354;2024-03-29T03:32:35;100263.91;;;7.61;81.67
81379;BME280;70830;42.290;-71.354;2024-03-29T03:35:01;100281.84;;;7.73;82.32
81379;BME280;70830;42.290;-71.354;2024-03-29T03:37:26;100290.56;;;7.73;81.99
81379;BME280;70830;42.290;-71.354;2024-03-29T03:39:52;100293.19;;;7.73;82.45
81379;BME280;70830;42.290;-71.354;2024-03-29T03:42:18;100294.97;;;7.73;81.79
81379;BME280;70830;42.290;-71.354;2024-03-29T03:44:44;100292.59;;;7.65;82.22
81379;BME280;70830;42.290;-71.354;2024-03-29T03:47:10;100262.47;;;7.52;81.47
81379;BME280;70830;42.290;-71.354;2024-03-29T03:49:36;100289.00;;;7.68;81.56
81379;BME280;70830;42.290;-71.354;2024-03-29T03:52:02;100286.38;;;7.68;81.66
81379;BME280;70830;42.290;-71.354;2024-03-29T03:54:28;100277.88;;;7.61;81.73
81379;BME280;70830;42.290;-71.354;2024-03-29T03:56:54;100260.72;;;7.51;82.00
81379;BME280;70830;42.290;-71.354;2024-03-29T03:59:20;100275.25;;;7.61;81.59
81379;BME280;70830;42.290;-71.354;2024-03-29T04:01:48;100273.59;;;7.59;81.85
81379;BME280;70830;42.290;-71.354;2024-03-29T04:04:17;100260.69;;;7.53;81.57
81379;BME280;70830;42.290;-71.354;2024-03-29T04:06:44;100255.31;;;7.56;81.03
81379;BME280;70830;42.290;-71.354;2024-03-29T04:09:10;100231.22;;;7.46;81.42
81379;BME280;70830;42.290;-71.354;2024-03-29T04:11:35;100233.03;;;7.44;82.36
81379;BME280;70830;42.290;-71.354;2024-03-29T04:14:01;100240.69;;;7.50;82.16
81379;BME280;70830;42.290;-71.354;2024-03-29T04:16:27;100234.00;;;7.42;81.47
81379;BME280;70830;42.290;-71.354;2024-03-29T04:18:53;100224.63;;;7.34;82.06
81379;BME280;70830;42.290;-71.354;2024-03-29T04:21:22;100227.94;;;7.39;81.22
81379;BME280;70830;42.290;-71.354;2024-03-29T04:23:48;100192.47;;;7.29;81.82
81379;BME280;70830;42.290;-71.354;2024-03-29T04:26:13;100173.31;;;7.27;81.90
81379;BME280;70830;42.290;-71.354;2024-03-29T04:28:39;100191.56;;;7.30;81.34
81379;BME280;70830;42.290;-71.354;2024-03-29T04:31:05;100190.63;;;7.31;81.90
81379;BME280;70830;42.290;-71.354;2024-03-29T04:33:31;100207.22;;;7.32;81.73
81379;BME280;70830;42.290;-71.354;2024-03-29T04:36:02;100193.25;;;7.31;81.23
81379;BME280;70830;42.290;-71.354;2024-03-29T04:38:29;100170.91;;;7.21;82.28
81379;BME280;70830;42.290;-71.354;2024-03-29T04:40:56;100182.09;;;7.26;81.55
81379;BME280;70830;42.290;-71.354;2024-03-29T04:43:24;100159.81;;;7.13;81.77
81379;BME280;70830;42.290;-71.354;2024-03-29T04:45:50;100160.53;;;7.18;81.40
81379;BME280;70830;42.290;-71.354;2024-03-29T04:48:26;100163.84;;;7.23;81.87
81379;BME280;70830;42.290;-71.354;2024-03-29T04:50:52;100150.84;;;7.20;82.01
81379;BME280;70830;42.290;-71.354;2024-03-29T04:53:18;100127.69;;;7.08;81.44
81379;BME280;70830;42.290;-71.354;2024-03-29T04:55:44;100151.78;;;7.18;81.46
81379;BME280;70830;42.290;-71.354;2024-03-29T04:58:13;100135.50;;;7.10;81.42
81379;BME280;70830;42.290;-71.354;2024-03-29T05:00:42;100147.66;;;7.12;81.96
81379;BME280;70830;42.290;-71.354;2024-03-29T05:03:08;100170.44;;;7.10;81.72
81379;BME280;70830;42.290;-71.354;2024-03-29T05:05:34;100160.84;;;7.09;81.60
81379;BME280;70830;42.290;-71.354;2024-03-29T05:08:00;100154.81;;;7.07;81.87
81379;BME280;70830;42.290;-71.354;2024-03-29T05:10:26;100143.59;;;7.04;82.23
81379;BME280;70830;42.290;-71.354;2024-03-29T05:12:51;100152.19;;;7.07;82.24
81379;BME280;70830;42.290;-71.354;2024-03-29T05:15:19;100143.59;;;7.04;81.53
81379;BME280;70830;42.290;-71.354;2024-03-29T05:17:45;100160.19;;;7.04;81.28
81379;BME280;70830;42.290;-71.354;2024-03-29T05:20:11;100148.84;;;7.02;81.52
81379;BME280;70830;42.290;-71.354;2024-03-29T05:22:37;100132.56;;;6.94;81.87
81379;BME280;70830;42.290;-71.354;2024-03-29T05:25:03;100117.69;;;6.95;81.38
81379;BME280;70830;42.290;-71.354;2024-03-29T05:27:29;100096.91;;;6.90;81.32
81379;BME280;70830;42.290;-71.354;2024-03-29T05:29:55;100100.94;;;6.99;81.42
81379;BME280;70830;42.290;-71.354;2024-03-29T05:32:21;100115.09;;;6.95;81.67
81379;BME280;70830;42.290;-71.354;2024-03-29T05:34:47;100140.50;;;6.93;81.02
81379;BME280;70830;42.290;-71.354;2024-03-29T05:37:13;100139.63;;;6.92;81.19
81379;BME280;70830;42.290;-71.354;2024-03-29T05:39:42;100133.59;;;6.90;81.34
81379;BME280;70830;42.290;-71.354;2024-03-29T05:42:08;100141.50;;;6.89;80.99
81379;BME280;70830;42.290;-71.354;2024-03-29T05:44:35;100130.19;;;6.87;80.15
81379;BME280;70830;42.290;-71.354;2024-03-29T05:47:02;100120.72;;;6.84;81.59
81379;BME280;70830;42.290;-71.354;2024-03-29T05:49:30;100113.75;;;6.83;81.08
81379;BME280;70830;42.290;-71.354;2024-03-29T05:51:56;100112.94;;;6.81;81.26
81379;BME280;70830;42.290;-71.354;2024-03-29T05:54:22;100100.06;;;6.75;81.64
81379;BME280;70830;42.290;-71.354;2024-03-29T05:56:48;100081.72;;;6.75;81.38
81379;BME280;70830;42.290;-71.354;2024-03-29T05:59:14;100053.44;;;6.60;80.61
81379;BME280;70830;42.290;-71.354;2024-03-29T06:01:40;100055.78;;;6.68;80.68
81379;BME280;70830;42.290;-71.354;2024-03-29T06:04:06;100048.94;;;6.63;80.91
81379;BME280;70830;42.290;-71.354;2024-03-29T06:06:40;100057.78;;;6.61;80.73
81379;BME280;70830;42.290;-71.354;2024-03-29T06:09:06;100040.63;;;6.52;80.51
81379;BME280;70830;42.290;-71.354;2024-03-29T06:11:31;100050.13;;;6.55;81.15
81379;BME280;70830;42.290;-71.354;2024-03-29T06:13:57;100038.06;;;6.51;80.50
81379;BME280;70830;42.290;-71.354;2024-03-29T06:16:24;100038.06;;;6.51;80.83
81379;BME280;70830;42.290;-71.354;2024-03-29T06:19:09;100014.59;;;6.48;80.63
81379;BME280;70830;42.290;-71.354;2024-03-29T06:21:35;100001.88;;;6.37;80.82
81379;BME280;70830;42.290;-71.354;2024-03-29T06:24:09;100013.03;;;6.42;80.86
81379;BME280;70830;42.290;-71.354;2024-03-29T06:26:38;99987.38;;;6.27;80.77
81379;BME280;70830;42.290;-71.354;2024-03-29T06:29:04;99985.41;;;6.34;80.95
81379;BME280;70830;42.290;-71.354;2024-03-29T06:31:30;99982.91;;;6.31;80.63
81379;BME280;70830;42.290;-71.354;2024-03-29T06:33:57;99972.44;;;6.31;80.64
81379;BME280;70830;42.290;-71.354;2024-03-29T06:36:24;99961.13;;;6.30;80.65
81379;BME280;70830;42.290;-71.354;2024-03-29T06:38:51;99955.72;;;6.10;80.04
81379;BME280;70830;42.290;-71.354;2024-03-29T06:41:17;99999.78;;;6.22;80.95
81379;BME280;70830;42.290;-71.354;2024-03-29T06:43:43;99994.66;;;6.19;80.27
81379;BME280;70830;42.290;-71.354;2024-03-29T06:46:14;99994.00;;;6.13;80.43
81379;BME280;70830;42.290;-71.354;2024-03-29T06:48:41;99998.69;;;6.03;80.02
81379;BME280;70830;42.290;-71.354;2024-03-29T06:51:06;100020.19;;;6.13;80.40
81379;BME280;70830;42.290;-71.354;2024-03-29T06:53:32;100008.94;;;6.09;80.30
81379;BME280;70830;42.290;-71.354;2024-03-29T06:56:00;99998.69;;;6.03;79.94
81379;BME280;70830;42.290;-71.354;2024-03-29T06:58:29;100013.53;;;6.03;80.27
81379;BME280;70830;42.290;-71.354;2024-03-29T07:00:55;99969.56;;;5.87;80.38
81379;BME280;70830;42.290;-71.354;2024-03-29T07:03:21;99992.88;;;5.95;80.64
81379;BME280;70830;42.290;-71.354;2024-03-29T07:05:47;100001.94;;;5.83;80.10
81379;BME280;70830;42.290;-71.354;2024-03-29T07:08:13;100016.72;;;5.86;80.28
81379;BME280;70830;42.290;-71.354;2024-03-29T07:10:39;100029.84;;;5.83;80.70
81379;BME280;70830;42.290;-71.354;2024-03-29T07:13:08;100022.97;;;5.80;80.68
81379;BME280;70830;42.290;-71.354;2024-03-29T07:15:35;100007.56;;;5.71;80.31
81379;BME280;70830;42.290;-71.354;2024-03-29T07:18:01;100008.56;;;5.67;80.34
81379;BME280;70830;42.290;-71.354;2024-03-29T07:20:30;100033.69;;;5.73;79.83
81379;BME280;70830;42.290;-71.354;2024-03-29T07:22:56;100024.19;;;5.69;80.34
81379;BME280;70830;42.290;-71.354;2024-03-29T07:25:22;100020.84;;;5.65;80.17
81379;BME280;70830;42.290;-71.354;2024-03-29T07:27:52;100014.88;;;5.62;80.07
81379;BME280;70830;42.290;-71.354;2024-03-29T07:30:18;100006.34;;;5.55;79.92
81379;BME280;70830;42.290;-71.354;2024-03-29T07:32:43;100022.78;;;5.59;80.17
81379;BME280;70830;42.290;-71.354;2024-03-29T07:35:10;99999.59;;;5.48;80.27
81379;BME280;70830;42.290;-71.354;2024-03-29T07:37:37;100012.53;;;5.53;80.01
81379;BME280;70830;42.290;-71.354;2024-03-29T07:40:03;100009.13;;;5.51;79.70
81379;BME280;70830;42.290;-71.354;2024-03-29T07:42:29;99965.63;;;5.20;79.53
81379;BME280;70830;42.290;-71.354;2024-03-29T07:44:55;100000.13;;;5.32;80.69
81379;BME280;70830;42.290;-71.354;2024-03-29T07:47:21;100037.16;;;5.46;80.22
81379;BME280;70830;42.290;-71.354;2024-03-29T07:49:50;100057.25;;;5.44;79.86
81379;BME280;70830;42.290;-71.354;2024-03-29T07:52:16;100058.16;;;5.43;80.20
81379;BME280;70830;42.290;-71.354;2024-03-29T07:54:42;100062.50;;;5.42;80.84
81379;BME280;70830;42.290;-71.354;2024-03-29T07:57:08;100054.84;;;5.38;81.31
81379;BME280;70830;42.290;-71.354;2024-03-29T07:59:34;100045.34;;;5.34;80.04
81379;BME280;70830;42.290;-71.354;2024-03-29T08:02:00;100027.31;;;5.25;80.88
81379;BME280;70830;42.290;-71.354;2024-03-29T08:04:27;100040.13;;;5.34;80.67
81379;BME280;70830;42.290;-71.354;2024-03-29T08:06:53;100035.94;;;5.28;79.86
81379;BME280;70830;42.290;-71.354;2024-03-29T08:09:20;100028.19;;;5.25;80.33
81379;BME280;70830;42.290;-71.354;2024-03-29T08:11:46;100029.06;;;5.26;80.16
81379;BME280;70830;42.290;-71.354;2024-03-29T08:14:12;100013.47;;;5.22;79.93
81379;BME280;70830;42.290;-71.354;2024-03-29T08:16:38;100011.03;;;5.16;80.07
81379;BME280;70830;42.290;-71.354;2024-03-29T08:19:04;99987.03;;;5.04;80.53
81379;BME280;70830;42.290;-71.354;2024-03-29T08:21:29;99965.41;;;4.99;80.00
81379;BME280;70830;42.290;-71.354;2024-03-29T08:23:55;99953.38;;;4.93;80.12
81379;BME280;70830;42.290;-71.354;2024-03-29T08:26:22;99970.44;;;5.06;79.97
81379;BME280;70830;42.290;-71.354;2024-03-29T08:28:48;99950.59;;;4.99;79.49
81379;BME280;70830;42.290;-71.354;2024-03-29T08:31:15;99926.72;;;4.84;80.09
81379;BME280;70830;42.290;-71.354;2024-03-29T08:33:42;99936.16;;;4.88;79.98
81379;BME280;70830;42.290;-71.354;2024-03-29T08:36:09;99948.31;;;4.89;79.81
81379;BME280;70830;42.290;-71.354;2024-03-29T08:38:37;99938.09;;;4.81;79.75
81379;BME280;70830;42.290;-71.354;2024-03-29T08:41:06;99932.25;;;4.73;80.12
81379;BME280;70830;42.290;-71.354;2024-03-29T08:43:33;99958.19;;;4.78;80.36
81379;BME280;70830;42.290;-71.354;2024-03-29T08:45:59;99937.59;;;4.69;80.38
81379;BME280;70830;42.290;-71.354;2024-03-29T08:48:26;99944.38;;;4.74;80.58
81379;BME280;70830;42.290;-71.354;2024-03-29T08:50:52;99940.91;;;4.74;80.34
81379;BME280;70830;42.290;-71.354;2024-03-29T08:53:18;99942.72;;;4.72;79.86
81379;BME280;70830;42.290;-71.354;2024-03-29T08:55:46;99918.69;;;4.61;79.95
81379;BME280;70830;42.290;-71.354;2024-03-29T08:58:12;99915.19;;;4.62;79.82
81379;BME280;70830;42.290;-71.354;2024-03-29T09:00:38;99913.44;;;4.62;79.99
81379;BME280;70830;42.290;-71.354;2024-03-29T09:03:04;99906.53;;;4.60;79.85
81379;BME280;70830;42.290;-71.354;2024-03-29T09:05:30;99885.81;;;4.54;80.30
81379;BME280;70830;42.290;-71.354;2024-03-29T09:07:56;99896.09;;;4.60;79.81
81379;BME280;70830;42.290;-71.354;2024-03-29T09:10:23;99897.72;;;4.64;79.67
81379;BME280;70830;42.290;-71.354;2024-03-29T09:12:53;99894.31;;;4.60;79.47
81379;BME280;70830;42.290;-71.354;2024-03-29T09:15:19;99880.47;;;4.58;79.13
81379;BME280;70830;42.290;-71.354;2024-03-29T09:17:45;99867.47;;;4.57;79.74
81379;BME280;70830;42.290;-71.354;2024-03-29T09:20:12;99864.06;;;4.55;79.58
81379;BME280;70830;42.290;-71.354;2024-03-29T09:22:38;99857.25;;;4.49;79.28
81379;BME280;70830;42.290;-71.354;2024-03-29T09:25:05;99872.88;;;4.51;79.03
81379;BME280;70830;42.290;-71.354;2024-03-29T09:27:31;99867.00;;;4.42;79.29
81379;BME280;70830;42.290;-71.354;2024-03-29T09:30:03;99876.63;;;4.42;79.72
81379;BME280;70830;42.290;-71.354;2024-03-29T09:32:31;99877.50;;;4.41;79.53
81379;BME280;70830;42.290;-71.354;2024-03-29T09:34:57;99874.16;;;4.37;79.16
81379;BME280;70830;42.290;-71.354;2024-03-29T09:37:23;99860.56;;;4.25;79.47
81379;BME280;70830;42.290;-71.354;2024-03-29T09:39:49;99888.03;;;4.38;79.01
81379;BME280;70830;42.290;-71.354;2024-03-29T09:42:22;99894.22;;;4.35;78.77
81379;BME280;70830;42.290;-71.354;2024-03-29T09:44:51;99892.53;;;4.33;79.44
81379;BME280;70830;42.290;-71.354;2024-03-29T09:47:17;99905.59;;;4.31;79.05
81379;BME280;70830;42.290;-71.354;2024-03-29T09:49:44;99902.19;;;4.29;79.27
81379;BME280;70830;42.290;-71.354;2024-03-29T09:52:13;99905.78;;;4.25;79.11
81379;BME280;70830;42.290;-71.354;2024-03-29T09:54:40;99919.66;;;4.27;79.43
81379;BME280;70830;42.290;-71.354;2024-03-29T09:57:07;99922.34;;;4.24;78.50
81379;BME280;70830;42.290;-71.354;2024-03-29T09:59:33;99928.47;;;4.23;78.93
81379;BME280;70830;42.290;-71.354;2024-03-29T10:02:00;99943.25;;;4.23;78.61
81379;BME280;70830;42.290;-71.354;2024-03-29T10:04:30;99943.50;;;4.14;78.91
81379;BME280;70830;42.290;-71.354;2024-03-29T10:06:58;99944.28;;;4.17;78.78
81379;BME280;70830;42.290;-71.354;2024-03-29T10:09:24;99946.84;;;4.19;78.74
81379;BME280;70830;42.290;-71.354;2024-03-29T10:11:54;99946.91;;;4.17;79.21
81379;BME280;70830;42.290;-71.354;2024-03-29T10:14:20;99937.28;;;4.18;79.05
81379;BME280;70830;42.290;-71.354;2024-03-29T10:16:51;99905.47;;;4.05;78.98
81379;BME280;70830;42.290;-71.354;2024-03-29T10:19:17;99913.19;;;4.10;78.90
81379;BME280;70830;42.290;-71.354;2024-03-29T10:21:43;99919.16;;;4.13;78.82
81379;BME280;70830;42.290;-71.354;2024-03-29T10:24:14;99922.69;;;4.12;78.68
81379;BME280;70830;42.290;-71.354;2024-03-29T10:26:41;99911.44;;;4.10;78.94
81379;BME280;70830;42.290;-71.354;2024-03-29T10:29:08;99921.91;;;4.09;78.61
81379;BME280;70830;42.290;-71.354;2024-03-29T10:31:37;99914.22;;;4.04;78.56
81379;BME280;70830;42.290;-71.354;2024-03-29T10:34:06;99901.25;;;4.01;78.52
81379;BME280;70830;42.290;-71.354;2024-03-29T10:36:34;99892.09;;;3.87;78.90
81379;BME280;70830;42.290;-71.354;2024-03-29T10:39:11;99910.91;;;3.98;78.56
81379;BME280;70830;42.290;-71.354;2024-03-29T10:41:42;99905.91;;;3.90;79.19
81379;BME280;70830;42.290;-71.354;2024-03-29T10:44:12;99916.13;;;3.98;79.12
81379;BME280;70830;42.290;-71.354;2024-03-29T10:46:39;99902.31;;;3.94;79.07
81379;BME280;70830;42.290;-71.354;2024-03-29T10:49:08;99890.44;;;3.84;79.63
81379;BME280;70830;42.290;-71.354;2024-03-29T10:51:41;99895.53;;;3.89;79.21
81379;BME280;70830;42.290;-71.354;2024-03-29T10:54:12;99892.94;;;3.87;78.81
81379;BME280;70830;42.290;-71.354;2024-03-29T10:56:38;99884.28;;;3.85;79.24
81379;BME280;70830;42.290;-71.354;2024-03-29T10:59:22;99865.44;;;3.76;79.28
81379;BME280;70830;42.290;-71.354;2024-03-29T11:01:59;99891.31;;;3.83;79.11
81379;BME280;70830;42.290;-71.354;2024-03-29T11:04:29;99883.59;;;3.79;79.66
81379;BME280;70830;42.290;-71.354;2024-03-29T11:07:01;99900.19;;;3.76;79.79
81379;BME280;70830;42.290;-71.354;2024-03-29T11:09:31;99887.13;;;3.78;80.03
81379;BME280;70830;42.290;-71.354;2024-03-29T11:12:01;99896.69;;;3.77;78.91
81379;BME280;70830;42.290;-71.354;2024-03-29T11:14:33;99882.84;;;3.75;79.60
81379;BME280;70830;42.290;-71.354;2024-03-29T11:17:03;99865.78;;;3.63;79.49
81379;BME280;70830;42.290;-71.354;2024-03-29T11:19:32;99857.00;;;3.66;79.81
81379;BME280;70830;42.290;-71.354;2024-03-29T11:21:59;99850.06;;;3.66;78.75
81379;BME280;70830;42.290;-71.354;2024-03-29T11:24:26;99820.91;;;3.52;79.08
81379;BME280;70830;42.290;-71.354;2024-03-29T11:26:54;99834.53;;;3.62;79.76
81379;BME280;70830;42.290;-71.354;2024-03-29T11:29:21;99828.53;;;3.58;79.75
81379;BME280;70830;42.290;-71.354;2024-03-29T11:31:55;99836.47;;;3.55;79.22
81379;BME280;70830;42.290;-71.354;2024-03-29T11:34:21;99824.59;;;3.44;79.49
81379;BME280;70830;42.290;-71.354;2024-03-29T11:36:47;99838.28;;;3.52;79.87
81379;BME280;70830;42.290;-71.354;2024-03-29T11:39:23;99838.34;;;3.49;79.34
81379;BME280;70830;42.290;-71.354;2024-03-29T11:41:50;99832.31;;;3.47;80.15
81379;BME280;70830;42.290;-71.354;2024-03-29T11:44:16;99814.25;;;3.41;79.89
81379;BME280;70830;42.290;-71.354;2024-03-29T11:46:43;99820.16;;;3.47;78.93
81379;BME280;70830;42.290;-71.354;2024-03-29T11:49:13;99814.06;;;3.48;79.52
81379;BME280;70830;42.290;-71.354;2024-03-29T11:51:41;99831.38;;;3.51;79.52
81379;BME280;70830;42.290;-71.354;2024-03-29T11:54:07;99817.53;;;3.47;79.46
81379;BME280;70830;42.290;-71.354;2024-03-29T11:56:32;99843.25;;;3.61;79.24
81379;BME280;70830;42.290;-71.354;2024-03-29T11:58:58;99837.09;;;3.63;79.05
81379;BME280;70830;42.290;-71.354;2024-03-29T12:01:29;99850.94;;;3.65;79.34
81379;BME280;70830;42.290;-71.354;2024-03-29T12:03:57;99839.66;;;3.65;79.61
81379;BME280;70830;42.290;-71.354;2024-03-29T12:06:23;99824.19;;;3.59;79.12
81379;BME280;70830;42.290;-71.354;2024-03-29T12:08:49;99829.22;;;3.65;78.69
81379;BME280;70830;42.290;-71.354;2024-03-29T12:11:18;99821.50;;;3.62;78.85
81379;BME280;70830;42.290;-71.354;2024-03-29T12:13:45;99824.19;;;3.59;78.86
81379;BME280;70830;42.290;-71.354;2024-03-29T12:16:10;99820.94;;;3.51;78.05
81379;BME280;70830;42.290;-71.354;2024-03-29T12:18:38;99807.94;;;3.49;78.35
81379;BME280;70830;42.290;-71.354;2024-03-29T12:21:04;99789.91;;;3.42;79.18
81379;BME280;70830;42.290;-71.354;2024-03-29T12:23:30;99803.00;;;3.39;79.09
81379;BME280;70830;42.290;-71.354;2024-03-29T12:26:02;99804.69;;;3.41;78.79
81379;BME280;70830;42.290;-71.354;2024-03-29T12:28:28;99790.16;;;3.33;79.31
81379;BME280;70830;42.290;-71.354;2024-03-29T12:30:56;99799.53;;;3.40;79.43
81379;BME280;70830;42.290;-71.354;2024-03-29T12:33:22;99797.00;;;3.37;79.26
81379;BME280;70830;42.290;-71.354;2024-03-29T12:35:52;99781.59;;;3.28;79.61
81379;BME280;70830;42.290;-71.354;2024-03-29T12:38:20;99772.97;;;3.26;79.41
81379;BME280;70830;42.290;-71.354;2024-03-29T12:40:48;99800.66;;;3.30;79.49
81379;BME280;70830;42.290;-71.354;2024-03-29T12:43:15;99798.09;;;3.28;79.09